createdAt,value
2019-06-07T00:00:32.182Z,100.00
2019-06-07T00:02:40.295Z,100.00
2019-06-07T00:05:10.007Z,100.00
2019-06-07T00:07:39.323Z,100.00
2019-06-07T00:10:09.510Z,100.00
2019-06-07T00:12:38.445Z,100.00
2019-06-07T00:15:11.699Z,100.00
2019-06-07T00:17:37.449Z,100.00
2019-06-07T00:20:08.497Z,100.00
2019-06-07T00:22:36.819Z,100.00
2019-06-07T00:25:05.906Z,100.00
2019-06-07T00:27:34.419Z,100.00
2019-06-07T00:30:29.733Z,100.00
2019-06-07T00:32:34.517Z,100.00
2019-06-07T00:35:03.638Z,100.00
2019-06-07T00:37:32.133Z,100.00
2019-06-07T00:40:13.893Z,100.00
2019-06-07T00:42:31.111Z,100.00
2019-06-07T00:44:59.490Z,100.00
2019-06-07T00:47:28.057Z,100.00
2019-06-07T00:49:56.436Z,100.00
2019-06-07T00:53:11.507Z,100.00
2019-06-07T00:54:55.654Z,100.00
2019-06-07T00:57:24.549Z,100.00
2019-06-07T00:59:53.446Z,100.00
2019-06-07T01:02:25.912Z,100.00
2019-06-07T01:04:52.451Z,100.00
2019-06-07T01:07:21.973Z,100.00
2019-06-07T01:09:51.262Z,100.00
2019-06-07T01:12:21.556Z,100.00
2019-06-07T01:14:50.339Z,100.00
2019-06-07T01:17:40.098Z,100.00
2019-06-07T01:19:55.504Z,100.00
2019-06-07T01:22:28.895Z,100.00
2019-06-07T01:24:54.248Z,100.00
2019-06-07T01:27:25.386Z,100.00
2019-06-07T01:29:53.254Z,100.00
2019-06-07T01:32:24.686Z,100.00
2019-06-07T01:34:52.001Z,100.00
2019-06-07T01:37:25.007Z,100.00
2019-06-07T01:39:51.066Z,100.00
2019-06-07T01:42:20.417Z,100.00
2019-06-07T01:44:49.725Z,100.00
2019-06-07T01:47:20.463Z,100.00
2019-06-07T01:49:48.698Z,100.00
2019-06-07T01:52:17.088Z,100.00
2019-06-07T01:54:58.614Z,100.00
2019-06-07T01:57:36.208Z,100.00
2019-06-07T01:59:46.116Z,100.00
2019-06-07T02:02:14.490Z,100.00
2019-06-07T02:04:43.003Z,100.00
2019-06-07T02:07:11.468Z,100.00
2019-06-07T02:09:39.854Z,100.00
2019-06-07T02:12:25.054Z,100.00
2019-06-07T02:14:38.777Z,100.00
2019-06-07T02:17:07.257Z,100.00
2019-06-07T02:19:35.742Z,100.00
2019-06-07T02:22:04.275Z,100.00
2019-06-07T02:24:35.817Z,100.00
2019-06-07T02:27:03.155Z,100.00
2019-06-07T02:29:33.535Z,100.00
2019-06-07T02:32:02.106Z,100.00
2019-06-07T02:34:35.929Z,100.00
2019-06-07T02:37:01.087Z,100.00
2019-06-07T02:39:34.387Z,100.00
2019-06-07T02:42:00.157Z,100.00
2019-06-07T02:44:34.924Z,100.00
2019-06-07T02:46:59.012Z,100.00
2019-06-07T02:49:31.354Z,100.00
2019-06-07T02:51:57.867Z,100.00
2019-06-07T02:54:27.382Z,100.00
2019-06-07T02:56:58.947Z,100.00
2019-06-07T02:59:54.886Z,100.00
2019-06-07T03:01:57.722Z,100.00
2019-06-07T03:04:29.525Z,100.00
2019-06-07T03:06:58.985Z,100.00
2019-06-07T03:09:30.910Z,100.00
2019-06-07T03:12:00.998Z,100.00
2019-06-07T03:14:35.254Z,100.00
2019-06-07T03:17:12.102Z,100.00
2019-06-07T03:19:43.774Z,100.00
2019-06-07T03:22:12.274Z,100.00
2019-06-07T03:24:44.190Z,100.00
2019-06-07T03:27:38.891Z,100.00
2019-06-07T03:29:44.848Z,100.00
2019-06-07T03:32:13.361Z,100.00
2019-06-07T03:34:43.723Z,100.00
2019-06-07T03:37:12.223Z,100.00
2019-06-07T03:39:41.154Z,100.00
2019-06-07T03:42:09.804Z,100.00
2019-06-07T03:44:41.343Z,100.00
2019-06-07T03:47:08.773Z,100.00
2019-06-07T03:49:41.706Z,100.00
2019-06-07T03:52:07.637Z,100.00
2019-06-07T03:54:39.405Z,100.00
2019-06-07T03:57:06.482Z,100.00
2019-06-07T03:59:38.599Z,100.00
2019-06-07T04:02:05.238Z,100.00
2019-06-07T04:04:36.983Z,100.00
2019-06-07T04:07:04.342Z,100.00
2019-06-07T04:09:35.656Z,100.00
2019-06-07T04:12:03.293Z,100.00
2019-06-07T04:14:32.874Z,100.00
2019-06-07T04:17:01.491Z,100.00
2019-06-07T04:19:32.307Z,100.00
2019-06-07T04:22:00.339Z,100.00
2019-06-07T04:24:28.814Z,100.00
2019-06-07T04:26:57.409Z,100.00
2019-06-07T04:29:33.123Z,100.00
2019-06-07T04:31:56.484Z,100.00
2019-06-07T04:34:24.993Z,100.00
2019-06-07T04:36:59.156Z,100.00
2019-06-07T04:39:24.565Z,100.00
2019-06-07T04:41:55.008Z,100.00
2019-06-07T04:44:24.881Z,100.00
2019-06-07T04:46:55.992Z,100.00
2019-06-07T04:49:24.972Z,100.00
2019-06-07T04:51:55.451Z,100.00
2019-06-07T04:54:24.183Z,100.00
2019-06-07T04:56:52.653Z,100.00
2019-06-07T05:00:00.973Z,100.00
2019-06-07T05:01:51.479Z,100.00
2019-06-07T05:04:20.285Z,100.00
2019-06-07T05:06:48.756Z,100.00
2019-06-07T05:09:17.335Z,100.00
2019-06-07T05:11:45.919Z,100.00
2019-06-07T05:14:14.339Z,100.00
2019-06-07T05:16:44.271Z,100.00
2019-06-07T05:19:13.193Z,100.00
2019-06-07T05:22:01.619Z,100.00
2019-06-07T05:24:12.289Z,100.00
2019-06-07T05:26:42.790Z,100.00
2019-06-07T05:29:11.283Z,100.00
2019-06-07T05:31:44.950Z,100.00
2019-06-07T05:34:11.471Z,100.00
2019-06-07T05:36:44.310Z,100.00
2019-06-07T05:39:10.211Z,100.00
2019-06-07T05:41:41.175Z,100.00
2019-06-07T05:44:12.693Z,100.00
2019-06-07T05:46:41.970Z,100.00
2019-06-07T05:49:09.591Z,100.00
2019-06-07T05:51:41.522Z,100.00
2019-06-07T05:54:08.413Z,100.00
2019-06-07T05:56:39.368Z,100.00
2019-06-07T05:59:07.329Z,100.00
2019-06-07T06:01:53.404Z,100.00
2019-06-07T06:04:06.356Z,100.00
2019-06-07T06:06:36.373Z,100.00
2019-06-07T06:09:13.920Z,100.00
2019-06-07T06:11:49.394Z,100.00
2019-06-07T06:14:08.326Z,100.00
2019-06-07T06:16:37.235Z,100.00
2019-06-07T06:19:05.856Z,100.00
2019-06-07T06:21:34.318Z,100.00
2019-06-07T06:24:03.003Z,100.00
2019-06-07T06:26:31.584Z,100.00
2019-06-07T06:29:00.054Z,100.00
2019-06-07T06:31:28.615Z,100.00
2019-06-07T06:33:57.094Z,100.00
2019-06-07T06:36:25.513Z,100.00
2019-06-07T06:38:54.106Z,100.00
2019-06-07T06:41:22.716Z,100.00
2019-06-07T06:43:52.655Z,100.00
2019-06-07T06:46:38.282Z,100.00
2019-06-07T06:48:55.296Z,100.00
2019-06-07T06:51:22.318Z,100.00
2019-06-07T06:53:52.568Z,100.00
2019-06-07T06:56:21.190Z,100.00
2019-06-07T06:59:27.255Z,100.00
2019-06-07T07:01:19.982Z,100.00
2019-06-07T07:04:07.316Z,100.00
2019-06-07T07:06:27.128Z,100.00
2019-06-07T07:08:53.422Z,100.00
2019-06-07T07:11:23.147Z,100.00
2019-06-07T07:13:56.342Z,100.00
2019-06-07T07:16:22.540Z,100.00
2019-06-07T07:18:54.339Z,100.00
2019-06-07T07:21:21.410Z,100.00
2019-06-07T07:24:14.755Z,100.00
2019-06-07T07:26:20.534Z,100.00
2019-06-07T07:28:51.770Z,100.00
2019-06-07T07:31:19.460Z,100.00
2019-06-07T07:36:37.457Z,100.00
2019-06-07T07:38:51.839Z,100.00
2019-06-07T07:41:19.140Z,100.00
2019-06-07T07:43:54.456Z,100.00
2019-06-07T07:46:28.956Z,100.00
2019-06-07T07:48:48.622Z,100.00
2019-06-07T07:51:17.731Z,100.00
2019-06-07T07:53:54.368Z,100.00
2019-06-07T07:56:16.618Z,100.00
2019-06-07T07:58:49.311Z,100.00
2019-06-07T08:01:15.539Z,100.00
2019-06-07T08:03:44.017Z,100.00
2019-06-07T08:06:12.591Z,100.00
2019-06-07T08:08:41.330Z,100.00
2019-06-07T08:11:09.796Z,100.00
2019-06-07T08:13:38.365Z,99.84
2019-06-07T08:16:14.100Z,99.93
2019-06-07T08:18:37.184Z,98.03
2019-06-07T08:21:23.686Z,97.49
2019-06-07T08:23:36.039Z,96.23
2019-06-07T08:26:04.460Z,97.71
2019-06-07T08:28:32.934Z,95.87
2019-06-07T08:31:06.743Z,94.00
2019-06-07T08:33:31.823Z,95.20
2019-06-07T08:36:14.092Z,96.56
2019-06-07T08:38:47.031Z,95.14
2019-06-07T08:41:11.057Z,92.54
2019-06-07T08:43:31.589Z,93.79
2019-06-07T08:46:06.852Z,91.01
2019-06-07T08:48:30.612Z,90.97
2019-06-07T08:51:06.314Z,90.60
2019-06-07T08:53:29.391Z,91.51
2019-06-07T08:56:05.628Z,91.49
2019-06-07T08:58:28.289Z,89.00
2019-06-07T09:01:03.897Z,87.72
2019-06-07T09:03:27.088Z,84.76
2019-06-07T09:05:57.175Z,85.02
2019-06-07T09:08:30.381Z,83.76
2019-06-07T09:10:58.779Z,83.41
2019-06-07T09:13:26.856Z,85.45
2019-06-07T09:15:57.760Z,83.87
2019-06-07T09:18:44.415Z,86.11
2019-06-07T09:20:59.283Z,88.32
2019-06-07T09:23:26.676Z,87.17
2019-06-07T09:26:04.832Z,83.42
2019-06-07T09:28:26.418Z,83.60
2019-06-07T09:30:57.107Z,84.78
2019-06-07T09:33:25.491Z,85.64
2019-06-07T09:35:54.315Z,85.21
2019-06-07T09:38:26.292Z,81.50
2019-06-07T09:40:53.519Z,83.46
2019-06-07T09:45:52.284Z,79.91
2019-06-07T09:49:01.479Z,78.81
2019-06-07T09:50:51.388Z,77.59
2019-06-07T09:53:23.107Z,78.17
2019-06-07T09:55:50.361Z,76.22
2019-06-07T09:58:50.423Z,76.84
2019-06-07T10:00:49.267Z,76.88
2019-06-07T10:03:22.360Z,77.92
2019-06-07T10:05:48.340Z,77.18
2019-06-07T10:09:31.608Z,78.05
2019-06-07T10:10:47.197Z,79.46
2019-06-07T10:13:15.709Z,80.97
2019-06-07T10:15:44.194Z,80.01
2019-06-07T10:18:12.693Z,78.50
2019-06-07T10:20:41.212Z,77.39
2019-06-07T10:23:10.178Z,79.47
2019-06-07T10:25:38.803Z,79.69
2019-06-07T10:28:08.237Z,79.52
2019-06-07T10:30:36.885Z,78.62
2019-06-07T10:33:06.859Z,76.18
2019-06-07T10:35:35.572Z,75.23
2019-06-07T10:38:04.562Z,74.60
2019-06-07T10:40:33.330Z,76.70
2019-06-07T10:43:02.928Z,75.86
2019-06-07T10:45:31.737Z,74.27
2019-06-07T10:48:01.499Z,74.34
2019-06-07T10:50:30.466Z,73.82
2019-06-07T10:52:59.035Z,74.51
2019-06-07T10:55:27.502Z,78.24
2019-06-07T10:57:56.084Z,77.52
2019-06-07T11:00:24.973Z,76.00
2019-06-07T11:02:55.286Z,75.44
2019-06-07T11:05:23.971Z,70.89
2019-06-07T11:07:52.513Z,71.86
2019-06-07T11:10:21.016Z,74.04
2019-06-07T11:12:49.649Z,75.48
2019-06-07T11:15:18.201Z,73.05
2019-06-07T11:17:46.871Z,75.31
2019-06-07T11:20:18.520Z,74.81
2019-06-07T11:22:47.210Z,75.37
2019-06-07T11:25:15.878Z,73.98
2019-06-07T11:27:44.480Z,74.64
2019-06-07T11:30:14.625Z,76.89
2019-06-07T11:32:43.302Z,76.15
2019-06-07T11:35:15.322Z,75.16
2019-06-07T11:37:43.879Z,73.47
2019-06-07T11:40:35.521Z,75.32
2019-06-07T11:42:43.285Z,79.42
2019-06-07T11:45:12.914Z,75.05
2019-06-07T11:47:42.654Z,77.55
2019-06-07T11:50:11.950Z,75.66
2019-06-07T11:52:40.683Z,72.58
2019-06-07T11:55:11.371Z,74.48
2019-06-07T11:57:40.026Z,71.86
2019-06-07T12:00:11.702Z,72.81
2019-06-07T12:02:40.432Z,74.47
2019-06-07T12:05:12.632Z,74.83
2019-06-07T12:07:40.059Z,73.41
2019-06-07T12:10:10.589Z,75.75
2019-06-07T12:12:39.479Z,74.52
2019-06-07T12:15:10.937Z,75.12
2019-06-07T12:17:39.713Z,75.27
2019-06-07T12:20:10.774Z,73.97
2019-06-07T12:22:39.499Z,74.95
2019-06-07T12:25:08.386Z,78.78
2019-06-07T12:27:36.946Z,74.81
2019-06-07T12:30:11.113Z,76.53
2019-06-07T12:32:36.289Z,80.04
2019-06-07T12:35:06.359Z,78.72
2019-06-07T12:37:43.774Z,79.75
2019-06-07T12:40:05.911Z,75.29
2019-06-07T12:42:34.496Z,74.11
2019-06-07T12:45:03.756Z,74.09
2019-06-07T12:47:33.126Z,80.53
2019-06-07T12:50:01.817Z,81.29
2019-06-07T12:52:30.770Z,75.36
2019-06-07T12:54:59.417Z,74.29
2019-06-07T12:57:28.103Z,77.87
2019-06-07T12:59:57.410Z,74.10
2019-06-07T13:02:25.987Z,74.50
2019-06-07T13:04:54.698Z,78.99
2019-06-07T13:07:24.289Z,82.67
2019-06-07T13:09:53.102Z,79.25
2019-06-07T13:12:21.883Z,77.98
2019-06-07T13:14:50.414Z,82.73
2019-06-07T13:17:20.344Z,76.06
2019-06-07T13:19:49.194Z,75.07
2019-06-07T13:22:18.299Z,76.36
2019-06-07T13:24:47.049Z,76.60
2019-06-07T13:27:16.215Z,74.38
2019-06-07T13:29:44.885Z,78.41
2019-06-07T13:32:13.557Z,80.23
2019-06-07T13:34:42.198Z,75.99
2019-06-07T13:37:10.756Z,73.31
2019-06-07T13:39:39.116Z,77.53
2019-06-07T13:42:07.982Z,79.79
2019-06-07T13:44:36.546Z,78.65
2019-06-07T13:47:05.244Z,78.57
2019-06-07T13:49:33.930Z,73.91
2019-06-07T13:52:02.567Z,81.10
2019-06-07T13:54:31.067Z,73.11
2019-06-07T13:57:02.808Z,74.19
2019-06-07T13:59:30.150Z,71.60
2019-06-07T14:01:58.778Z,73.79
2019-06-07T14:04:27.320Z,74.99
2019-06-07T14:06:56.060Z,73.45
2019-06-07T14:09:25.246Z,79.41
2019-06-07T14:11:53.936Z,73.24
2019-06-07T14:14:24.565Z,73.77
2019-06-07T14:16:53.393Z,76.18
2019-06-07T14:19:22.660Z,76.60
2019-06-07T14:21:51.597Z,79.15
2019-06-07T14:24:20.987Z,79.02
2019-06-07T14:27:09.188Z,73.31
2019-06-07T14:29:37.902Z,78.48
2019-06-07T14:32:07.166Z,80.25
2019-06-07T14:34:36.225Z,79.81
2019-06-07T14:37:05.360Z,79.53
2019-06-07T14:39:33.857Z,80.66
2019-06-07T14:42:09.045Z,77.65
2019-06-07T14:44:34.009Z,76.76
2019-06-07T14:47:02.866Z,82.17
2019-06-07T14:49:32.690Z,82.17
2019-06-07T14:52:01.550Z,80.64
2019-06-07T14:54:33.489Z,78.83
2019-06-07T14:57:03.305Z,78.42
2019-06-07T14:59:32.728Z,78.42
2019-06-07T15:02:01.692Z,80.92
2019-06-07T15:04:30.771Z,80.92
2019-06-07T15:06:59.607Z,77.25
2019-06-07T15:09:29.073Z,77.25
2019-06-07T15:11:57.682Z,78.30
2019-06-07T15:14:27.309Z,81.04
2019-06-07T15:16:55.958Z,79.42
2019-06-07T15:19:24.657Z,79.92
2019-06-07T15:21:53.265Z,79.98
2019-06-07T15:24:21.828Z,77.33
2019-06-07T15:26:50.489Z,80.09
2019-06-07T15:29:19.163Z,80.09
2019-06-07T15:31:47.754Z,76.33
2019-06-07T15:34:16.462Z,77.25
2019-06-07T15:36:45.128Z,78.27
2019-06-07T15:39:13.624Z,81.05
2019-06-07T15:41:42.123Z,77.98
2019-06-07T15:44:10.969Z,77.57
2019-06-07T15:46:40.346Z,78.30
2019-06-07T15:49:09.193Z,81.84
2019-06-07T15:51:38.644Z,81.69
2019-06-07T15:54:07.933Z,77.85
2019-06-07T15:56:37.009Z,77.92
2019-06-07T15:59:05.685Z,80.23
2019-06-07T16:01:35.576Z,82.39
2019-06-07T16:04:04.648Z,81.76
2019-06-07T16:06:34.296Z,80.45
2019-06-07T16:09:04.605Z,81.17
2019-06-07T16:11:34.565Z,79.95
2019-06-07T16:14:06.294Z,82.22
2019-06-07T16:16:35.069Z,82.83
2019-06-07T16:19:03.925Z,82.83
2019-06-07T16:21:33.291Z,79.72
2019-06-07T16:24:02.110Z,78.78
2019-06-07T16:26:30.596Z,79.98
2019-06-07T16:28:59.404Z,79.07
2019-06-07T16:31:27.916Z,82.95
2019-06-07T16:33:56.486Z,83.35
2019-06-07T16:36:25.001Z,82.60
2019-06-07T16:38:53.608Z,81.22
2019-06-07T16:41:23.072Z,85.15
2019-06-07T16:43:51.593Z,85.15
2019-06-07T16:46:21.368Z,83.34
2019-06-07T16:48:50.371Z,85.44
2019-06-07T16:51:18.995Z,85.44
2019-06-07T16:53:48.586Z,83.75
2019-06-07T16:56:17.281Z,85.60
2019-06-07T16:58:46.519Z,84.89
2019-06-07T17:01:15.629Z,87.23
2019-06-07T17:03:45.577Z,86.52
2019-06-07T17:06:14.307Z,84.84
2019-06-07T17:08:44.270Z,86.46
2019-06-07T17:11:12.976Z,86.60
2019-06-07T17:13:42.338Z,88.01
2019-06-07T17:16:11.125Z,88.21
2019-06-07T17:18:40.870Z,88.21
2019-06-07T17:21:09.620Z,87.94
2019-06-07T17:23:39.169Z,85.21
2019-06-07T17:26:08.080Z,85.93
2019-06-07T17:28:36.641Z,86.71
2019-06-07T17:31:05.123Z,88.61
2019-06-07T17:33:33.735Z,87.83
2019-06-07T17:36:02.206Z,89.76
2019-06-07T17:38:30.784Z,88.81
2019-06-07T17:40:59.352Z,90.46
2019-06-07T17:43:27.783Z,89.79
2019-06-07T17:45:56.474Z,91.02
2019-06-07T17:48:25.045Z,91.21
2019-06-07T17:50:53.703Z,90.54
2019-06-07T17:53:22.248Z,90.02
2019-06-07T17:55:50.839Z,91.09
2019-06-07T17:58:19.716Z,91.78
2019-06-07T18:00:51.085Z,90.87
2019-06-07T18:03:19.957Z,91.15
2019-06-07T18:05:49.276Z,90.75
2019-06-07T18:08:17.982Z,90.37
2019-06-07T18:10:47.854Z,90.84
2019-06-07T18:13:16.567Z,90.42
2019-06-07T18:15:46.482Z,90.81
2019-06-07T18:18:16.440Z,90.91
2019-06-07T18:20:45.226Z,91.29
2019-06-07T18:23:13.772Z,92.48
2019-06-07T18:25:42.285Z,93.21
2019-06-07T18:28:10.971Z,92.96
2019-06-07T18:30:39.460Z,94.36
2019-06-07T18:33:08.121Z,93.45
2019-06-07T18:35:37.004Z,93.84
2019-06-07T18:38:05.490Z,95.27
2019-06-07T18:40:34.133Z,94.15
2019-06-07T18:43:03.015Z,92.86
2019-06-07T18:45:31.580Z,94.54
2019-06-07T18:48:00.172Z,93.82
2019-06-07T18:50:28.764Z,93.70
2019-06-07T18:52:59.021Z,92.96
2019-06-07T18:55:27.842Z,94.50
2019-06-07T18:57:56.632Z,95.86
2019-06-07T19:00:25.810Z,94.65
2019-06-07T19:02:55.992Z,94.99
2019-06-07T19:05:25.593Z,94.98
2019-06-07T19:07:54.688Z,94.85
2019-06-07T19:10:23.796Z,95.05
2019-06-07T19:12:53.119Z,95.91
2019-06-07T19:15:23.993Z,96.65
2019-06-07T19:17:53.899Z,97.22
2019-06-07T19:20:23.290Z,95.11
2019-06-07T19:22:52.098Z,95.73
2019-06-07T19:25:21.178Z,94.76
2019-06-07T19:27:50.635Z,96.57
2019-06-07T19:30:19.360Z,98.94
2019-06-07T19:32:49.732Z,99.05
2019-06-07T19:35:18.422Z,99.30
2019-06-07T19:37:48.056Z,98.28
2019-06-07T19:40:18.302Z,98.28
2019-06-07T19:42:47.132Z,97.66
2019-06-07T19:45:29.855Z,98.22
2019-06-07T19:47:46.754Z,99.01
2019-06-07T19:50:17.476Z,100.00
2019-06-07T19:52:46.782Z,100.00
2019-06-07T19:55:16.051Z,100.00
2019-06-07T19:57:44.743Z,100.00
2019-06-07T20:00:14.669Z,100.00
2019-06-07T20:02:44.409Z,100.00
2019-06-07T20:05:15.189Z,100.00
2019-06-07T20:07:43.819Z,100.00
2019-06-07T20:10:12.799Z,100.00
2019-06-07T20:12:41.381Z,100.00
2019-06-07T20:15:27.138Z,100.00
2019-06-07T20:17:40.487Z,100.00
2019-06-07T20:20:09.394Z,100.00
2019-06-07T20:22:37.904Z,100.00
2019-06-07T20:25:07.025Z,100.00
2019-06-07T20:27:36.119Z,100.00
2019-06-07T20:30:06.108Z,100.00
2019-06-07T20:32:35.015Z,100.00
2019-06-07T20:35:04.093Z,100.00
2019-06-07T20:37:32.612Z,100.00
2019-06-07T20:40:12.970Z,100.00
2019-06-07T20:42:32.380Z,100.00
2019-06-07T20:45:02.092Z,100.00
2019-06-07T20:47:30.858Z,100.00
2019-06-07T20:50:00.055Z,100.00
2019-06-07T20:52:28.837Z,100.00
2019-06-07T20:54:58.427Z,100.00
2019-06-07T20:57:27.118Z,100.00
2019-06-07T20:59:55.603Z,100.00
2019-06-07T21:02:23.970Z,100.00
2019-06-07T21:04:52.383Z,100.00
2019-06-07T21:07:20.862Z,100.00
2019-06-07T21:09:49.388Z,100.00
2019-06-07T21:12:17.871Z,100.00
2019-06-07T21:14:46.650Z,100.00
2019-06-07T21:17:15.124Z,100.00
2019-06-07T21:19:43.720Z,100.00
2019-06-07T21:22:12.260Z,100.00
2019-06-07T21:24:40.631Z,100.00
2019-06-07T21:27:09.538Z,100.00
2019-06-07T21:29:38.124Z,100.00
2019-06-07T21:32:07.526Z,100.00
2019-06-07T21:34:36.293Z,100.00
2019-06-07T21:37:05.656Z,100.00
2019-06-07T21:39:34.198Z,100.00
2019-06-07T21:42:04.084Z,100.00
2019-06-07T21:44:32.985Z,100.00
2019-06-07T21:47:02.088Z,100.00
2019-06-07T21:49:30.932Z,100.00
2019-06-07T21:51:59.432Z,100.00
2019-06-07T21:54:28.353Z,100.00
2019-06-07T21:56:56.842Z,100.00
2019-06-07T21:59:25.345Z,100.00
2019-06-07T22:01:53.766Z,100.00
2019-06-07T22:04:22.356Z,100.00
2019-06-07T22:06:51.245Z,100.00
2019-06-07T22:09:19.958Z,100.00
2019-06-07T22:11:48.572Z,100.00
2019-06-07T22:14:16.919Z,100.00
2019-06-07T22:16:45.449Z,100.00
2019-06-07T22:19:14.941Z,100.00
2019-06-07T22:21:43.474Z,100.00
2019-06-07T22:24:13.051Z,100.00
2019-06-07T22:26:41.778Z,100.00
2019-06-07T22:29:10.363Z,100.00
2019-06-07T22:31:38.818Z,100.00
2019-06-07T22:34:08.654Z,100.00
2019-06-07T22:36:37.324Z,100.00
2019-06-07T22:39:07.528Z,100.00
2019-06-07T22:41:36.117Z,100.00
2019-06-07T22:44:04.600Z,100.00
2019-06-07T22:46:37.463Z,100.00
2019-06-07T22:49:03.497Z,100.00
2019-06-07T22:51:32.070Z,100.00
2019-06-07T22:56:42.774Z,100.00
2019-06-07T22:59:14.106Z,100.00
2019-06-07T23:01:41.618Z,100.00
2019-06-07T23:04:10.468Z,100.00
2019-06-07T23:06:39.097Z,100.00
2019-06-07T23:09:08.799Z,100.00
2019-06-07T23:11:37.589Z,100.00
2019-06-07T23:14:06.163Z,100.00
2019-06-07T23:16:34.665Z,100.00
2019-06-07T23:19:03.366Z,100.00
2019-06-07T23:21:31.862Z,100.00
2019-06-07T23:24:00.458Z,100.00
2019-06-07T23:26:28.958Z,100.00
2019-06-07T23:28:57.561Z,100.00
2019-06-07T23:31:26.106Z,100.00
2019-06-07T23:33:54.572Z,100.00
2019-06-07T23:36:23.046Z,100.00
2019-06-07T23:38:51.682Z,100.00
2019-06-07T23:41:20.470Z,100.00
2019-06-07T23:43:50.342Z,100.00
2019-06-07T23:46:19.469Z,100.00
2019-06-07T23:48:48.011Z,100.00
2019-06-07T23:51:17.693Z,100.00
2019-06-07T23:53:46.489Z,100.00
2019-06-07T23:56:15.900Z,100.00
2019-06-07T23:58:44.455Z,100.00
